French Creek, West Virginia
Current Conditions -  °F | °C
As of 12:15 PM on Sunday 23 Nov 2014 (Local Time) from KW22 Reporting Station
Clear Clear  
Wind Chill: 18°   Ceiling: Unl
Heat Index: 18°   Visibility: 10mi
Dew Point:   Wind: 9mph
Humidity: 49%   Direction: 170°S
Pressure: 30.01"   Gusts: NA
Location:  38.89°N, 80.3°W
Report Text: KW22 231715Z AUTO 17008KT 10SM CLR 18/07 A3001 RMK AO2
Loading
Personal Weather Stations






























Interactive Weather Map New forecast layout! Learn more

10-Day Weather Forecast

Advertisements
Track Severe Weather on mobile